createdAt,value
2023-11-09T00:00:58.742Z,8.50
2023-11-09T00:03:27.935Z,8.50
2023-11-09T00:05:56.256Z,8.50
2023-11-09T00:08:25.024Z,8.50
2023-11-09T00:10:53.195Z,8.50
2023-11-09T00:13:21.217Z,8.50
2023-11-09T00:15:49.419Z,8.40
2023-11-09T00:18:22.944Z,8.40
2023-11-09T00:20:52.990Z,8.40
2023-11-09T00:23:21.029Z,8.40
2023-11-09T00:25:49.028Z,8.40
2023-11-09T00:28:17.404Z,8.40
2023-11-09T00:30:45.732Z,8.40
2023-11-09T00:33:13.730Z,8.50
2023-11-09T00:35:41.558Z,8.50
2023-11-09T00:38:11.295Z,8.50
2023-11-09T00:40:39.312Z,8.50
2023-11-09T00:43:07.182Z,8.50
2023-11-09T00:45:35.854Z,8.50
2023-11-09T00:48:04.670Z,8.50
2023-11-09T00:50:33.214Z,8.60
2023-11-09T00:53:01.287Z,8.50
2023-11-09T00:55:30.748Z,8.60
2023-11-09T00:57:58.750Z,8.50
2023-11-09T01:00:28.211Z,8.50
2023-11-09T01:02:56.060Z,8.60
2023-11-09T01:05:24.108Z,8.50
2023-11-09T01:07:51.925Z,8.50
2023-11-09T01:10:19.954Z,8.50
2023-11-09T01:12:49.133Z,8.60
2023-11-09T01:15:17.070Z,8.60
2023-11-09T01:18:04.637Z,8.60
2023-11-09T01:20:33.330Z,8.60
2023-11-09T01:23:01.161Z,8.60
2023-11-09T01:25:29.083Z,8.60
2023-11-09T01:27:58.322Z,8.60
2023-11-09T01:30:27.330Z,8.60
2023-11-09T01:32:55.222Z,8.60
2023-11-09T01:35:23.444Z,8.60
2023-11-09T01:37:51.304Z,8.60
2023-11-09T01:40:19.545Z,8.60
2023-11-09T01:42:47.477Z,8.60
2023-11-09T01:45:16.775Z,8.60
2023-11-09T01:47:44.698Z,8.70
2023-11-09T01:50:12.638Z,8.60
2023-11-09T01:52:40.477Z,8.60
2023-11-09T01:55:09.090Z,8.60
2023-11-09T01:57:37.136Z,8.60
2023-11-09T02:00:07.496Z,8.60
2023-11-09T02:02:36.966Z,8.60
2023-11-09T02:05:05.159Z,8.60
2023-11-09T02:07:33.180Z,8.50
2023-11-09T02:10:01.049Z,8.50
2023-11-09T02:12:28.998Z,8.50
2023-11-09T02:14:56.852Z,8.50
2023-11-09T02:17:24.692Z,8.50
2023-11-09T02:19:53.875Z,8.50
2023-11-09T02:22:22.762Z,8.40
2023-11-09T02:24:52.343Z,8.40
2023-11-09T02:27:20.199Z,8.30
2023-11-09T02:29:48.098Z,8.30
2023-11-09T02:32:15.921Z,8.30
2023-11-09T02:34:43.762Z,8.30
2023-11-09T02:37:12.295Z,8.30
2023-11-09T02:39:40.166Z,8.30
2023-11-09T02:42:09.526Z,8.30
2023-11-09T02:44:38.166Z,8.30
2023-11-09T02:47:06.134Z,8.30
2023-11-09T02:49:34.875Z,8.30
2023-11-09T02:52:02.797Z,8.40
2023-11-09T02:54:30.719Z,8.40
2023-11-09T02:56:58.537Z,8.40
2023-11-09T02:59:27.952Z,8.40
2023-11-09T03:01:55.783Z,8.40
2023-11-09T03:04:23.813Z,8.40
2023-11-09T03:06:52.000Z,8.40
2023-11-09T03:09:20.171Z,8.40
2023-11-09T03:11:48.042Z,8.30
2023-11-09T03:14:15.893Z,8.30
2023-11-09T03:16:46.439Z,8.30
2023-11-09T03:19:14.605Z,8.30
2023-11-09T03:21:42.466Z,8.30
2023-11-09T03:24:10.354Z,8.30
2023-11-09T03:26:38.418Z,8.30
2023-11-09T03:29:06.719Z,8.30
2023-11-09T03:31:36.725Z,8.30
2023-11-09T03:34:05.994Z,8.20
2023-11-09T03:36:33.830Z,8.30
2023-11-09T03:39:01.730Z,8.30
2023-11-09T03:41:30.889Z,8.20
2023-11-09T03:43:58.776Z,8.20
2023-11-09T03:46:26.629Z,8.20
2023-11-09T03:48:54.470Z,8.30
2023-11-09T03:51:25.219Z,8.20
2023-11-09T03:53:53.196Z,8.30
2023-11-09T03:56:22.776Z,8.30
2023-11-09T03:58:50.780Z,8.30
2023-11-09T04:01:19.930Z,8.30
2023-11-09T04:03:47.977Z,8.30
2023-11-09T04:06:19.128Z,8.30
2023-11-09T04:08:48.481Z,8.30
2023-11-09T04:11:16.654Z,8.30
2023-11-09T04:13:44.508Z,8.30
2023-11-09T04:16:12.486Z,8.30
2023-11-09T04:18:40.644Z,8.30
2023-11-09T04:21:10.908Z,8.40
2023-11-09T04:23:38.927Z,8.40
2023-11-09T04:26:09.355Z,8.40
2023-11-09T04:28:37.825Z,8.40
2023-11-09T04:31:07.201Z,8.40
2023-11-09T04:33:35.624Z,8.40
2023-11-09T04:36:06.720Z,8.40
2023-11-09T04:38:38.368Z,8.40
2023-11-09T04:41:10.921Z,8.40
2023-11-09T04:43:40.289Z,8.40
2023-11-09T04:46:11.975Z,8.40
2023-11-09T04:48:45.740Z,8.40
2023-11-09T04:51:21.717Z,8.30
2023-11-09T04:53:52.396Z,8.30
2023-11-09T04:56:33.407Z,8.30
2023-11-09T04:59:03.533Z,8.30
2023-11-09T05:01:49.744Z,8.30
2023-11-09T05:04:34.579Z,8.40
2023-11-09T05:07:02.478Z,8.30
2023-11-09T05:09:30.348Z,8.40
2023-11-09T05:12:00.415Z,8.40
2023-11-09T05:14:28.346Z,8.40
2023-11-09T05:16:56.239Z,8.40
2023-11-09T05:19:24.172Z,8.40
2023-11-09T05:21:55.502Z,8.40
2023-11-09T05:24:23.639Z,8.40
2023-11-09T05:26:52.183Z,8.40
2023-11-09T05:29:22.656Z,8.40
2023-11-09T05:31:51.367Z,8.40
2023-11-09T05:34:19.229Z,8.40
2023-11-09T05:36:47.039Z,8.40
2023-11-09T05:39:15.356Z,8.50
2023-11-09T05:41:44.866Z,8.50
2023-11-09T05:44:12.724Z,8.40
2023-11-09T05:46:41.920Z,8.40
2023-11-09T05:49:11.371Z,8.40
2023-11-09T05:51:40.728Z,8.40
2023-11-09T05:54:09.679Z,8.50
2023-11-09T05:56:37.708Z,8.50
2023-11-09T05:59:05.703Z,8.50
2023-11-09T06:01:36.707Z,8.50
2023-11-09T06:04:06.268Z,8.50
2023-11-09T06:06:34.145Z,8.50
2023-11-09T06:09:02.821Z,8.50
2023-11-09T06:11:33.069Z,8.50
2023-11-09T06:14:01.871Z,8.50
2023-11-09T06:16:30.986Z,8.50
2023-11-09T06:18:59.178Z,8.50
2023-11-09T06:21:28.496Z,8.50
2023-11-09T06:23:56.330Z,8.50
2023-11-09T06:26:25.704Z,8.50
2023-11-09T06:28:54.392Z,8.50
2023-11-09T06:31:23.611Z,8.50
2023-11-09T06:33:52.917Z,8.50
2023-11-09T06:36:21.672Z,8.50
2023-11-09T06:38:50.924Z,8.50
2023-11-09T06:41:19.380Z,8.50
2023-11-09T06:43:47.288Z,8.50
2023-11-09T06:46:15.213Z,8.50
2023-11-09T06:48:43.077Z,8.50
2023-11-09T06:51:10.907Z,8.50
2023-11-09T06:53:38.791Z,8.50
2023-11-09T06:56:08.499Z,8.50
2023-11-09T06:58:36.359Z,8.50
2023-11-09T07:01:05.277Z,8.40
2023-11-09T07:03:33.200Z,8.50
2023-11-09T07:06:01.084Z,8.40
2023-11-09T07:08:30.092Z,8.40
2023-11-09T07:10:59.578Z,8.40
2023-11-09T07:13:28.906Z,8.40
2023-11-09T07:15:56.888Z,8.40
2023-11-09T07:18:24.774Z,8.30
2023-11-09T07:21:02.469Z,8.30
2023-11-09T07:23:36.299Z,8.30
2023-11-09T07:26:04.202Z,8.30
2023-11-09T07:28:33.551Z,8.20
2023-11-09T07:31:02.398Z,8.20
2023-11-09T07:33:30.594Z,8.20
2023-11-09T07:36:00.715Z,8.20
2023-11-09T07:38:28.883Z,8.20
2023-11-09T07:40:56.747Z,8.20
2023-11-09T07:43:26.630Z,8.20
2023-11-09T07:45:56.303Z,8.20
2023-11-09T07:48:25.289Z,8.20
2023-11-09T07:50:53.261Z,8.20
2023-11-09T07:53:21.199Z,8.20
2023-11-09T07:55:50.123Z,8.20
2023-11-09T07:58:18.533Z,8.20
2023-11-09T08:00:46.832Z,8.20
2023-11-09T08:03:18.941Z,8.30
2023-11-09T08:05:48.709Z,8.30
2023-11-09T08:08:17.736Z,8.30
2023-11-09T08:10:45.860Z,8.30
2023-11-09T08:13:14.190Z,8.30
2023-11-09T08:15:42.166Z,8.30
2023-11-09T08:18:10.115Z,8.30
2023-11-09T08:20:39.331Z,8.30
2023-11-09T08:23:10.341Z,8.30
2023-11-09T08:25:38.275Z,8.30
2023-11-09T08:28:06.486Z,8.30
2023-11-09T08:30:34.352Z,8.30
2023-11-09T08:33:03.550Z,8.30
2023-11-09T08:35:31.433Z,8.30
2023-11-09T08:38:02.367Z,8.40
2023-11-09T08:40:30.835Z,8.40
2023-11-09T08:42:59.889Z,8.50
2023-11-09T08:45:30.440Z,8.50
2023-11-09T08:47:58.985Z,8.50
2023-11-09T08:50:27.175Z,8.50
2023-11-09T08:52:55.977Z,8.50
2023-11-09T08:55:26.946Z,8.50
2023-11-09T08:57:55.894Z,8.50
2023-11-09T09:00:25.250Z,8.50
2023-11-09T09:02:55.809Z,8.50
2023-11-09T09:05:25.357Z,8.60
2023-11-09T09:07:57.817Z,8.50
2023-11-09T09:10:29.303Z,8.50
2023-11-09T09:12:58.403Z,8.60
2023-11-09T09:15:29.445Z,8.50
2023-11-09T09:17:58.716Z,8.50
2023-11-09T09:20:26.782Z,8.60
2023-11-09T09:22:56.880Z,8.60
2023-11-09T09:25:26.244Z,8.60
2023-11-09T09:27:56.743Z,8.60
2023-11-09T09:30:26.510Z,8.60
2023-11-09T09:32:55.317Z,8.60
2023-11-09T09:35:26.262Z,8.70
2023-11-09T09:37:55.759Z,8.60
2023-11-09T09:40:31.323Z,8.60
2023-11-09T09:43:08.232Z,8.70
2023-11-09T09:45:37.236Z,8.70
2023-11-09T09:48:06.240Z,8.80
2023-11-09T09:50:38.475Z,8.80
2023-11-09T09:53:09.798Z,8.90
2023-11-09T09:55:37.778Z,8.90
2023-11-09T09:58:07.443Z,8.90
2023-11-09T10:00:35.923Z,8.90
2023-11-09T10:03:07.498Z,9.00
2023-11-09T10:05:37.924Z,9.00
2023-11-09T10:08:08.575Z,9.10
2023-11-09T10:10:37.306Z,9.10
2023-11-09T10:13:09.047Z,9.20
2023-11-09T10:15:37.035Z,9.20
2023-11-09T10:18:05.713Z,9.20
2023-11-09T10:20:34.068Z,9.30
2023-11-09T10:23:04.329Z,9.40
2023-11-09T10:25:33.248Z,9.40
2023-11-09T10:28:03.593Z,9.50
2023-11-09T10:30:38.827Z,9.50
2023-11-09T10:33:10.339Z,9.50
2023-11-09T10:35:38.528Z,9.50
2023-11-09T10:38:09.327Z,9.50
2023-11-09T10:40:37.347Z,9.50
2023-11-09T10:43:06.236Z,9.50
2023-11-09T10:45:37.757Z,9.50
2023-11-09T10:48:09.737Z,9.50
2023-11-09T10:50:45.844Z,9.50
2023-11-09T10:53:15.144Z,9.50
2023-11-09T10:55:44.993Z,9.50
2023-11-09T10:58:13.933Z,9.50
2023-11-09T11:00:44.731Z,9.50
2023-11-09T11:03:17.275Z,9.50
2023-11-09T11:05:48.363Z,9.50
2023-11-09T11:08:17.981Z,9.50
2023-11-09T11:10:52.544Z,9.40
2023-11-09T11:13:21.360Z,9.40
2023-11-09T11:16:25.102Z,9.40
2023-11-09T11:19:08.616Z,9.40
2023-11-09T11:21:46.629Z,9.50
2023-11-09T11:24:24.824Z,9.50
2023-11-09T11:27:05.896Z,9.40
2023-11-09T11:29:39.226Z,9.40
2023-11-09T11:32:17.234Z,9.40
2023-11-09T11:34:55.587Z,9.40
2023-11-09T11:37:27.804Z,9.40
2023-11-09T11:39:56.110Z,9.40
2023-11-09T11:42:26.335Z,9.40
2023-11-09T11:44:58.241Z,9.50
2023-11-09T11:47:30.083Z,9.50
2023-11-09T11:50:01.601Z,9.50
2023-11-09T11:52:31.107Z,9.50
2023-11-09T11:55:01.540Z,10.00
2023-11-09T11:57:33.102Z,10.70
2023-11-09T12:00:05.429Z,11.30
2023-11-09T12:02:34.355Z,11.70
2023-11-09T12:05:03.917Z,11.50
2023-11-09T12:07:34.239Z,11.20
2023-11-09T12:10:02.180Z,10.90
2023-11-09T12:12:32.131Z,10.60
2023-11-09T12:15:01.437Z,10.40
2023-11-09T12:17:29.328Z,10.30
2023-11-09T12:19:57.726Z,10.10
2023-11-09T12:22:27.035Z,10.10
2023-11-09T12:25:04.084Z,10.00
2023-11-09T12:27:32.736Z,10.00
2023-11-09T12:30:00.874Z,10.00
2023-11-09T12:32:29.977Z,10.00
2023-11-09T12:35:00.684Z,10.00
2023-11-09T12:37:33.488Z,10.00
2023-11-09T12:40:01.450Z,10.00
2023-11-09T12:42:29.277Z,10.10
2023-11-09T12:44:57.867Z,10.10
2023-11-09T12:47:27.328Z,10.20
2023-11-09T12:50:04.160Z,10.20
2023-11-09T12:52:38.199Z,10.20
2023-11-09T12:55:08.377Z,10.30
2023-11-09T12:57:36.816Z,10.30
2023-11-09T13:00:06.147Z,10.40
2023-11-09T13:02:43.592Z,10.60
2023-11-09T13:05:14.525Z,10.70
2023-11-09T13:07:47.363Z,10.70
2023-11-09T13:10:23.054Z,10.80
2023-11-09T13:12:54.809Z,10.80
2023-11-09T13:15:38.128Z,10.80
2023-11-09T13:18:09.868Z,10.80
2023-11-09T13:20:38.859Z,10.80
2023-11-09T13:23:12.372Z,10.80
2023-11-09T13:25:41.977Z,10.80
2023-11-09T13:28:10.343Z,10.80
2023-11-09T13:30:51.880Z,10.80
2023-11-09T13:33:31.423Z,10.90
2023-11-09T13:36:01.010Z,10.80
2023-11-09T13:38:32.606Z,10.80
2023-11-09T13:41:19.305Z,10.80
2023-11-09T13:44:00.650Z,10.80
2023-11-09T13:46:29.240Z,10.70
2023-11-09T13:49:07.071Z,10.80
2023-11-09T13:51:34.988Z,10.70
2023-11-09T13:54:24.686Z,10.80
2023-11-09T13:57:19.011Z,10.80
2023-11-09T13:59:54.927Z,10.80
2023-11-09T14:02:23.280Z,10.80
2023-11-09T14:04:54.410Z,10.80
2023-11-09T14:07:28.569Z,10.80
2023-11-09T14:09:59.169Z,10.90
2023-11-09T14:12:38.805Z,10.90
2023-11-09T14:15:24.013Z,10.80
2023-11-09T14:17:53.070Z,10.80
2023-11-09T14:20:35.541Z,10.80
2023-11-09T14:23:06.508Z,10.80
2023-11-09T14:25:39.104Z,10.80
2023-11-09T14:28:06.965Z,10.80
2023-11-09T14:30:35.042Z,10.80
2023-11-09T14:33:03.674Z,10.80
2023-11-09T14:35:33.117Z,10.80
2023-11-09T14:38:04.647Z,10.70
2023-11-09T14:40:35.460Z,10.80
2023-11-09T14:43:10.258Z,10.80
2023-11-09T14:45:42.412Z,10.70
2023-11-09T14:48:12.112Z,10.70
2023-11-09T14:50:40.235Z,10.70
2023-11-09T14:53:26.347Z,10.70
2023-11-09T14:56:02.025Z,10.70
2023-11-09T14:58:34.558Z,10.70
2023-11-09T15:01:03.580Z,10.60
2023-11-09T15:03:32.802Z,10.70
2023-11-09T15:06:10.102Z,10.70
2023-11-09T15:08:38.576Z,10.70
2023-11-09T15:11:10.984Z,10.70
2023-11-09T15:13:40.965Z,10.70
2023-11-09T15:16:09.908Z,10.60
2023-11-09T15:18:38.136Z,10.60
2023-11-09T15:21:06.693Z,10.60
2023-11-09T15:23:34.980Z,10.60
2023-11-09T15:26:03.153Z,10.60
2023-11-09T15:28:31.829Z,10.60
2023-11-09T15:31:04.522Z,10.60
2023-11-09T15:33:32.506Z,10.60
2023-11-09T15:36:00.437Z,10.60
2023-11-09T15:38:29.030Z,10.60
2023-11-09T15:41:17.460Z,10.60
2023-11-09T15:43:44.725Z,10.60
2023-11-09T15:46:16.659Z,10.60
2023-11-09T15:48:46.561Z,10.60
2023-11-09T15:51:14.850Z,10.60
2023-11-09T15:53:43.938Z,10.50
2023-11-09T15:56:13.050Z,10.50
2023-11-09T15:58:42.781Z,10.40
2023-11-09T16:01:15.094Z,10.40
2023-11-09T16:03:46.146Z,10.40
2023-11-09T16:06:14.313Z,10.40
2023-11-09T16:08:42.303Z,10.40
2023-11-09T16:11:11.033Z,10.30
2023-11-09T16:13:39.182Z,10.30
2023-11-09T16:16:07.604Z,10.30
2023-11-09T16:18:35.455Z,10.30
2023-11-09T16:21:06.638Z,10.20
2023-11-09T16:23:37.328Z,10.20
2023-11-09T16:26:05.556Z,10.20
2023-11-09T16:28:34.863Z,10.20
2023-11-09T16:31:07.723Z,10.10
2023-11-09T16:33:36.410Z,10.10
2023-11-09T16:36:06.321Z,10.10
2023-11-09T16:38:34.348Z,10.10
2023-11-09T16:41:02.339Z,10.10
2023-11-09T16:43:32.883Z,10.10
2023-11-09T16:46:00.976Z,10.10
2023-11-09T16:48:29.328Z,10.10
2023-11-09T16:50:58.156Z,10.10
2023-11-09T16:53:27.341Z,10.00
2023-11-09T16:55:55.302Z,10.00
2023-11-09T16:58:23.227Z,10.00
2023-11-09T17:00:51.089Z,10.00
2023-11-09T17:03:19.661Z,10.00
2023-11-09T17:05:47.644Z,9.90
2023-11-09T17:08:15.565Z,9.90
2023-11-09T17:10:44.879Z,9.90
2023-11-09T17:13:12.742Z,9.90
2023-11-09T17:15:40.577Z,9.90
2023-11-09T17:18:08.705Z,9.90
2023-11-09T17:20:37.889Z,9.90
2023-11-09T17:23:05.854Z,9.90
2023-11-09T17:25:33.728Z,9.80
2023-11-09T17:28:03.683Z,9.80
2023-11-09T17:30:31.565Z,9.80
2023-11-09T17:33:01.370Z,9.80
2023-11-09T17:35:31.445Z,9.80
2023-11-09T17:37:59.419Z,9.80
2023-11-09T17:40:27.392Z,9.80
2023-11-09T17:42:55.266Z,9.70
2023-11-09T17:45:24.501Z,9.70
2023-11-09T17:47:52.344Z,9.70
2023-11-09T17:50:21.972Z,9.70
2023-11-09T17:52:52.921Z,9.70
2023-11-09T17:55:22.594Z,9.60
2023-11-09T17:57:50.547Z,9.70
2023-11-09T18:00:20.760Z,9.70
2023-11-09T18:02:50.092Z,9.60
2023-11-09T18:05:18.075Z,9.60
2023-11-09T18:07:46.206Z,9.60
2023-11-09T18:10:14.073Z,9.60
2023-11-09T18:12:43.431Z,9.60
2023-11-09T18:15:12.058Z,9.60
2023-11-09T18:17:40.141Z,9.70
2023-11-09T18:20:11.934Z,9.70
2023-11-09T18:22:39.944Z,9.70
2023-11-09T18:25:10.305Z,9.70
2023-11-09T18:27:38.458Z,9.70
2023-11-09T18:30:07.911Z,9.70
2023-11-09T18:32:36.822Z,9.70
2023-11-09T18:35:07.484Z,9.70
2023-11-09T18:37:36.885Z,9.70
2023-11-09T18:40:05.840Z,9.70
2023-11-09T18:42:33.661Z,9.70
2023-11-09T18:45:01.573Z,9.70
2023-11-09T18:47:29.488Z,9.70
2023-11-09T18:52:29.877Z,9.70
2023-11-09T18:54:59.352Z,9.70
2023-11-09T18:57:27.196Z,9.70
2023-11-09T18:59:55.120Z,9.70
2023-11-09T19:02:23.108Z,9.70
2023-11-09T19:04:53.029Z,9.70
2023-11-09T19:07:21.491Z,9.70
2023-11-09T19:09:50.583Z,9.70
2023-11-09T19:12:20.345Z,9.70
2023-11-09T19:14:48.595Z,9.70
2023-11-09T19:17:16.755Z,9.70
2023-11-09T19:19:44.750Z,9.70
2023-11-09T19:24:43.741Z,9.70
2023-11-09T19:27:12.786Z,9.80
2023-11-09T19:29:42.231Z,9.80
2023-11-09T19:32:11.284Z,9.70
2023-11-09T19:34:39.437Z,9.70
2023-11-09T19:37:07.539Z,9.70
2023-11-09T19:39:36.042Z,9.70
2023-11-09T19:42:04.218Z,9.70
2023-11-09T19:44:32.180Z,9.70
2023-11-09T19:47:04.418Z,9.70
2023-11-09T19:49:33.786Z,9.70
2023-11-09T19:52:01.635Z,9.70
2023-11-09T19:54:29.657Z,9.70
2023-11-09T19:56:57.973Z,9.70
2023-11-09T19:59:26.367Z,9.70
2023-11-09T20:01:54.201Z,9.70
2023-11-09T20:04:23.803Z,9.70
2023-11-09T20:06:52.206Z,9.70
2023-11-09T20:09:21.901Z,9.70
2023-11-09T20:11:50.025Z,9.70
2023-11-09T20:14:17.865Z,9.70
2023-11-09T20:16:46.072Z,9.70
2023-11-09T20:19:14.030Z,9.70
2023-11-09T20:21:46.093Z,9.70
2023-11-09T20:24:14.057Z,9.70
2023-11-09T20:26:42.233Z,9.60
2023-11-09T20:29:10.572Z,9.60
2023-11-09T20:31:38.419Z,9.60
2023-11-09T20:34:06.419Z,9.60
2023-11-09T20:36:34.356Z,9.60
2023-11-09T20:39:07.410Z,9.60
2023-11-09T20:41:35.489Z,9.60
2023-11-09T20:44:04.242Z,9.60
2023-11-09T20:46:32.309Z,9.50
2023-11-09T20:49:02.318Z,9.50
2023-11-09T20:51:30.521Z,9.50
2023-11-09T20:54:00.494Z,9.50
2023-11-09T20:56:29.895Z,9.50
2023-11-09T20:58:58.473Z,9.50
2023-11-09T21:01:28.100Z,9.50
2023-11-09T21:03:56.588Z,9.50
2023-11-09T21:06:25.526Z,9.50
2023-11-09T21:08:53.763Z,9.50
2023-11-09T21:11:21.638Z,9.50
2023-11-09T21:13:50.846Z,9.50
2023-11-09T21:16:18.820Z,9.60
2023-11-09T21:18:47.651Z,9.60
2023-11-09T21:21:15.907Z,9.60
2023-11-09T21:23:44.043Z,9.60
2023-11-09T21:26:14.000Z,9.60
2023-11-09T21:28:41.921Z,9.70
2023-11-09T21:31:11.721Z,9.60
2023-11-09T21:33:40.595Z,9.70
2023-11-09T21:36:14.785Z,9.70
2023-11-09T21:38:42.973Z,9.70
2023-11-09T21:41:10.820Z,9.70
2023-11-09T21:43:38.699Z,9.70
2023-11-09T21:46:09.461Z,9.70
2023-11-09T21:48:39.644Z,9.70
2023-11-09T21:51:07.704Z,9.70
2023-11-09T21:53:35.626Z,9.70
2023-11-09T21:56:06.477Z,9.70
2023-11-09T21:58:35.463Z,9.70
2023-11-09T22:01:03.388Z,9.70
2023-11-09T22:03:31.311Z,9.70
2023-11-09T22:06:00.606Z,9.70
2023-11-09T22:08:28.453Z,9.70
2023-11-09T22:10:56.834Z,9.70
2023-11-09T22:13:24.807Z,9.70
2023-11-09T22:15:54.791Z,9.70
2023-11-09T22:18:23.881Z,9.70
2023-11-09T22:20:51.924Z,9.70
2023-11-09T22:23:21.112Z,9.70
2023-11-09T22:25:49.028Z,9.70
2023-11-09T22:28:16.893Z,9.70
2023-11-09T22:30:44.865Z,9.60
2023-11-09T22:33:15.311Z,9.60
2023-11-09T22:35:44.035Z,9.60
2023-11-09T22:38:11.867Z,9.60
2023-11-09T22:40:41.656Z,9.60
2023-11-09T22:43:13.661Z,9.60
2023-11-09T22:45:41.529Z,9.60
2023-11-09T22:48:09.615Z,9.60
2023-11-09T22:50:37.549Z,9.70
2023-11-09T22:53:06.271Z,9.70
2023-11-09T22:55:34.100Z,9.70
2023-11-09T22:58:03.324Z,9.70
2023-11-09T23:00:37.010Z,9.70
2023-11-09T23:03:05.186Z,9.70
2023-11-09T23:05:33.300Z,9.70
2023-11-09T23:08:01.144Z,9.70
2023-11-09T23:10:29.557Z,9.70
2023-11-09T23:12:57.799Z,9.70
2023-11-09T23:15:27.331Z,9.70
2023-11-09T23:17:55.233Z,9.60
2023-11-09T23:20:23.137Z,9.60
2023-11-09T23:22:50.960Z,9.60
2023-11-09T23:25:19.404Z,9.60
2023-11-09T23:27:47.657Z,9.60
2023-11-09T23:30:16.598Z,9.60
2023-11-09T23:32:46.303Z,9.60
2023-11-09T23:35:17.505Z,9.60
2023-11-09T23:37:45.389Z,9.60
2023-11-09T23:40:15.047Z,9.50
2023-11-09T23:42:43.051Z,9.50
2023-11-09T23:45:11.194Z,9.50
2023-11-09T23:47:39.160Z,9.50
2023-11-09T23:50:10.552Z,9.50
2023-11-09T23:52:38.407Z,9.50
2023-11-09T23:55:07.743Z,9.50
2023-11-09T23:57:35.945Z,9.50
